sensor_id;sensor_type;location;lat;lon;timestamp;pressure;altitude;pressure_sealevel;temperature;humidity
22550;BME280;11441;57.164;-2.120;2022-08-21T00:00:22;100150.41;;;13.41;100.00
22550;BME280;11441;57.164;-2.120;2022-08-21T00:03:01;100122.91;;;12.96;100.00
22550;BME280;11441;57.164;-2.120;2022-08-21T00:05:32;100141.25;;;13.29;100.00
22550;BME280;11441;57.164;-2.120;2022-08-21T00:08:00;100144.72;;;13.15;100.00
22550;BME280;11441;57.164;-2.120;2022-08-21T00:10:27;100140.72;;;13.06;100.00
22550;BME280;11441;57.164;-2.120;2022-08-21T00:12:54;100145.06;;;13.07;100.00
22550;BME280;11441;57.164;-2.120;2022-08-21T00:15:28;100145.47;;;13.05;100.00
22550;BME280;11441;57.164;-2.120;2022-08-21T00:17:56;100145.78;;;12.96;100.00
22550;BME280;11441;57.164;-2.120;2022-08-21T00:20:43;100146.28;;;13.13;100.00
22550;BME280;11441;57.164;-2.120;2022-08-21T00:23:12;100155.59;;;12.90;100.00
22550;BME280;11441;57.164;-2.120;2022-08-21T00:25:40;100150.88;;;12.87;100.00
22550;BME280;11441;57.164;-2.120;2022-08-21T00:28:07;100155.56;;;12.83;100.00
22550;BME280;11441;57.164;-2.120;2022-08-21T00:30:34;100146.78;;;12.70;100.00
22550;BME280;11441;57.164;-2.120;2022-08-21T00:33:02;100149.69;;;12.92;100.00
22550;BME280;11441;57.164;-2.120;2022-08-21T00:35:33;100152.13;;;13.00;100.00
22550;BME280;11441;57.164;-2.120;2022-08-21T00:38:01;100142.66;;;12.98;100.00
22550;BME280;11441;57.164;-2.120;2022-08-21T00:41:07;100153.22;;;12.89;100.00
22550;BME280;11441;57.164;-2.120;2022-08-21T00:43:55;100136.63;;;12.85;100.00
22550;BME280;11441;57.164;-2.120;2022-08-21T00:46:22;100152.88;;;12.94;100.00
22550;BME280;11441;57.164;-2.120;2022-08-21T00:48:55;100149.72;;;12.95;100.00
22550;BME280;11441;57.164;-2.120;2022-08-21T00:51:49;100159.84;;;12.73;100.00
22550;BME280;11441;57.164;-2.120;2022-08-21T00:54:19;100143.69;;;12.75;100.00
22550;BME280;11441;57.164;-2.120;2022-08-21T00:57:17;100147.16;;;12.69;100.00
22550;BME280;11441;57.164;-2.120;2022-08-21T00:59:49;100135.97;;;12.51;100.00
22550;BME280;11441;57.164;-2.120;2022-08-21T01:02:18;100140.88;;;12.27;100.00
22550;BME280;11441;57.164;-2.120;2022-08-21T01:04:47;100134.25;;;12.32;100.00
22550;BME280;11441;57.164;-2.120;2022-08-21T01:07:14;100138.13;;;12.27;100.00
22550;BME280;11441;57.164;-2.120;2022-08-21T01:09:42;100146.22;;;12.50;100.00
22550;BME280;11441;57.164;-2.120;2022-08-21T01:12:09;100129.78;;;12.20;100.00
22550;BME280;11441;57.164;-2.120;2022-08-21T01:14:38;100138.31;;;12.04;100.00
22550;BME280;11441;57.164;-2.120;2022-08-21T01:17:08;100130.97;;;12.22;100.00
22550;BME280;11441;57.164;-2.120;2022-08-21T01:19:35;100146.31;;;12.16;100.00
22550;BME280;11441;57.164;-2.120;2022-08-21T01:22:05;100123.81;;;12.14;100.00
22550;BME280;11441;57.164;-2.120;2022-08-21T01:24:32;100136.59;;;12.30;100.00
22550;BME280;11441;57.164;-2.120;2022-08-21T01:27:00;100146.03;;;12.29;100.00
22550;BME280;11441;57.164;-2.120;2022-08-21T01:32:08;100143.19;;;12.18;100.00
22550;BME280;11441;57.164;-2.120;2022-08-21T01:34:38;100142.72;;;12.12;100.00
22550;BME280;11441;57.164;-2.120;2022-08-21T01:37:06;100138.59;;;11.95;100.00
22550;BME280;11441;57.164;-2.120;2022-08-21T01:39:34;100142.91;;;11.93;100.00
22550;BME280;11441;57.164;-2.120;2022-08-21T01:42:02;100128.88;;;12.08;100.00
22550;BME280;11441;57.164;-2.120;2022-08-21T01:44:29;100131.44;;;11.91;100.00
22550;BME280;11441;57.164;-2.120;2022-08-21T01:46:59;100140.56;;;11.95;100.00
22550;BME280;11441;57.164;-2.120;2022-08-21T01:49:27;100135.97;;;11.72;100.00
22550;BME280;11441;57.164;-2.120;2022-08-21T01:51:54;100138.28;;;11.70;100.00
22550;BME280;11441;57.164;-2.120;2022-08-21T01:54:21;100146.06;;;11.95;100.00
22550;BME280;11441;57.164;-2.120;2022-08-21T01:56:50;100144.53;;;11.97;100.00
22550;BME280;11441;57.164;-2.120;2022-08-21T01:59:18;100135.25;;;11.82;100.00
22550;BME280;11441;57.164;-2.120;2022-08-21T02:02:04;100158.91;;;11.80;100.00
22550;BME280;11441;57.164;-2.120;2022-08-21T02:04:34;100158.06;;;11.76;100.00
22550;BME280;11441;57.164;-2.120;2022-08-21T02:07:01;100164.50;;;11.87;100.00
22550;BME280;11441;57.164;-2.120;2022-08-21T02:09:28;100155.97;;;11.65;100.00
22550;BME280;11441;57.164;-2.120;2022-08-21T02:12:14;100159.53;;;12.00;100.00
22550;BME280;11441;57.164;-2.120;2022-08-21T02:14:41;100157.88;;;11.92;100.00
22550;BME280;11441;57.164;-2.120;2022-08-21T02:17:08;100152.81;;;11.97;100.00
22550;BME280;11441;57.164;-2.120;2022-08-21T02:19:36;100153.16;;;11.92;100.00
22550;BME280;11441;57.164;-2.120;2022-08-21T02:22:08;100154.41;;;11.68;100.00
22550;BME280;11441;57.164;-2.120;2022-08-21T02:24:36;100158.28;;;11.63;100.00
22550;BME280;11441;57.164;-2.120;2022-08-21T02:27:24;100153.03;;;11.85;100.00
22550;BME280;11441;57.164;-2.120;2022-08-21T02:30:15;100152.16;;;11.77;100.00
22550;BME280;11441;57.164;-2.120;2022-08-21T02:35:48;100153.63;;;12.01;100.00
22550;BME280;11441;57.164;-2.120;2022-08-21T02:38:30;100138.06;;;11.86;100.00
22550;BME280;11441;57.164;-2.120;2022-08-21T02:40:57;100135.22;;;11.79;100.00
22550;BME280;11441;57.164;-2.120;2022-08-21T02:43:43;100146.31;;;11.82;100.00
22550;BME280;11441;57.164;-2.120;2022-08-21T02:46:12;100138.56;;;11.92;100.00
22550;BME280;11441;57.164;-2.120;2022-08-21T02:48:58;100145.59;;;11.89;100.00
22550;BME280;11441;57.164;-2.120;2022-08-21T02:51:25;100137.38;;;11.93;100.00
22550;BME280;11441;57.164;-2.120;2022-08-21T02:53:53;100141.94;;;11.78;100.00
22550;BME280;11441;57.164;-2.120;2022-08-21T02:56:21;100126.00;;;11.64;100.00
22550;BME280;11441;57.164;-2.120;2022-08-21T02:58:51;100126.16;;;11.78;100.00
22550;BME280;11441;57.164;-2.120;2022-08-21T03:01:19;100130.81;;;11.70;100.00
22550;BME280;11441;57.164;-2.120;2022-08-21T03:03:47;100130.03;;;11.74;100.00
22550;BME280;11441;57.164;-2.120;2022-08-21T03:06:19;100126.03;;;11.67;100.00
22550;BME280;11441;57.164;-2.120;2022-08-21T03:08:48;100122.53;;;11.70;100.00
22550;BME280;11441;57.164;-2.120;2022-08-21T03:11:15;100129.88;;;11.59;100.00
22550;BME280;11441;57.164;-2.120;2022-08-21T03:13:42;100133.66;;;11.47;100.00
22550;BME280;11441;57.164;-2.120;2022-08-21T03:16:10;100135.78;;;11.58;100.00
22550;BME280;11441;57.164;-2.120;2022-08-21T03:18:38;100133.53;;;11.67;100.00
22550;BME280;11441;57.164;-2.120;2022-08-21T03:21:06;100129.84;;;11.56;100.00
22550;BME280;11441;57.164;-2.120;2022-08-21T03:23:33;100131.91;;;11.62;100.00
22550;BME280;11441;57.164;-2.120;2022-08-21T03:26:18;100123.66;;;11.66;100.00
22550;BME280;11441;57.164;-2.120;2022-08-21T03:29:05;100118.56;;;11.68;100.00
22550;BME280;11441;57.164;-2.120;2022-08-21T03:31:34;100128.44;;;11.69;100.00
22550;BME280;11441;57.164;-2.120;2022-08-21T03:34:00;100134.00;;;11.73;100.00
22550;BME280;11441;57.164;-2.120;2022-08-21T03:36:28;100133.44;;;11.60;100.00
22550;BME280;11441;57.164;-2.120;2022-08-21T03:38:55;100139.50;;;11.73;100.00
22550;BME280;11441;57.164;-2.120;2022-08-21T03:41:22;100127.47;;;11.54;100.00
22550;BME280;11441;57.164;-2.120;2022-08-21T03:43:49;100133.53;;;11.67;100.00
22550;BME280;11441;57.164;-2.120;2022-08-21T03:46:16;100130.09;;;11.77;100.00
22550;BME280;11441;57.164;-2.120;2022-08-21T03:48:43;100131.44;;;11.91;100.00
22550;BME280;11441;57.164;-2.120;2022-08-21T03:51:10;100125.22;;;11.97;100.00
22550;BME280;11441;57.164;-2.120;2022-08-21T03:53:37;100128.00;;;12.01;100.00
22550;BME280;11441;57.164;-2.120;2022-08-21T03:56:06;100136.63;;;11.96;100.00
22550;BME280;11441;57.164;-2.120;2022-08-21T03:58:33;100128.88;;;12.08;100.00
22550;BME280;11441;57.164;-2.120;2022-08-21T04:01:19;100132.78;;;12.04;100.00
22550;BME280;11441;57.164;-2.120;2022-08-21T04:03:46;100136.03;;;12.13;100.00
22550;BME280;11441;57.164;-2.120;2022-08-21T04:06:13;100128.63;;;12.21;100.00
22550;BME280;11441;57.164;-2.120;2022-08-21T04:08:40;100122.78;;;12.30;100.00
22550;BME280;11441;57.164;-2.120;2022-08-21T04:11:09;100120.44;;;12.32;100.00
22550;BME280;11441;57.164;-2.120;2022-08-21T04:13:39;100137.66;;;12.18;100.00
22550;BME280;11441;57.164;-2.120;2022-08-21T04:16:12;100142.28;;;12.10;100.00
22550;BME280;11441;57.164;-2.120;2022-08-21T04:18:40;100139.25;;;12.22;100.00
22550;BME280;11441;57.164;-2.120;2022-08-21T04:21:09;100138.13;;;12.27;100.00
22550;BME280;11441;57.164;-2.120;2022-08-21T04:23:38;100136.09;;;12.20;100.00
22550;BME280;11441;57.164;-2.120;2022-08-21T04:26:05;100146.13;;;11.98;100.00
22550;BME280;11441;57.164;-2.120;2022-08-21T04:28:34;100148.56;;;12.03;100.00
22550;BME280;11441;57.164;-2.120;2022-08-21T04:31:00;100155.34;;;12.13;100.00
22550;BME280;11441;57.164;-2.120;2022-08-21T04:33:47;100154.59;;;12.16;100.00
22550;BME280;11441;57.164;-2.120;2022-08-21T04:36:17;100160.19;;;12.23;100.00
22550;BME280;11441;57.164;-2.120;2022-08-21T04:39:03;100166.72;;;12.08;100.00
22550;BME280;11441;57.164;-2.120;2022-08-21T04:41:30;100167.56;;;12.12;100.00
22550;BME280;11441;57.164;-2.120;2022-08-21T04:43:57;100159.00;;;12.21;100.00
22550;BME280;11441;57.164;-2.120;2022-08-21T04:46:24;100167.34;;;12.28;100.00
22550;BME280;11441;57.164;-2.120;2022-08-21T04:49:10;100168.84;;;12.22;100.00
22550;BME280;11441;57.164;-2.120;2022-08-21T04:51:38;100173.19;;;12.23;100.00
22550;BME280;11441;57.164;-2.120;2022-08-21T04:54:14;100177.50;;;12.20;100.00
22550;BME280;11441;57.164;-2.120;2022-08-21T04:56:56;100165.63;;;12.16;100.00
22550;BME280;11441;57.164;-2.120;2022-08-21T04:59:30;100184.06;;;12.08;100.00
22550;BME280;11441;57.164;-2.120;2022-08-21T05:01:59;100190.28;;;12.36;100.00
22550;BME280;11441;57.164;-2.120;2022-08-21T05:04:29;100191.81;;;12.30;100.00
22550;BME280;11441;57.164;-2.120;2022-08-21T05:06:59;100194.03;;;12.17;100.00
22550;BME280;11441;57.164;-2.120;2022-08-21T05:09:28;100195.22;;;12.16;100.00
22550;BME280;11441;57.164;-2.120;2022-08-21T05:11:55;100205.38;;;12.08;100.00
22550;BME280;11441;57.164;-2.120;2022-08-21T05:14:23;100203.09;;;12.17;100.00
22550;BME280;11441;57.164;-2.120;2022-08-21T05:16:49;100216.41;;;12.08;100.00
22550;BME280;11441;57.164;-2.120;2022-08-21T05:19:16;100214.84;;;12.07;100.00
22550;BME280;11441;57.164;-2.120;2022-08-21T05:21:45;100214.34;;;12.01;100.00
22550;BME280;11441;57.164;-2.120;2022-08-21T05:24:14;100215.53;;;12.00;100.00
22550;BME280;11441;57.164;-2.120;2022-08-21T05:26:41;100214.19;;;12.21;100.00
22550;BME280;11441;57.164;-2.120;2022-08-21T05:29:13;100224.75;;;12.15;100.00
22550;BME280;11441;57.164;-2.120;2022-08-21T05:31:42;100228.34;;;12.16;100.00
22550;BME280;11441;57.164;-2.120;2022-08-21T05:34:09;100222.09;;;12.22;100.00
22550;BME280;11441;57.164;-2.120;2022-08-21T05:36:36;100229.69;;;12.33;100.00
22550;BME280;11441;57.164;-2.120;2022-08-21T05:39:03;100219.06;;;12.35;100.00
22550;BME280;11441;57.164;-2.120;2022-08-21T05:41:30;100226.13;;;12.32;100.00
22550;BME280;11441;57.164;-2.120;2022-08-21T05:43:59;100237.78;;;12.15;100.00
22550;BME280;11441;57.164;-2.120;2022-08-21T05:46:26;100237.09;;;12.25;100.00
22550;BME280;11441;57.164;-2.120;2022-08-21T05:49:13;100248.13;;;12.21;100.00
22550;BME280;11441;57.164;-2.120;2022-08-21T05:51:40;100253.53;;;12.11;100.00
22550;BME280;11441;57.164;-2.120;2022-08-21T05:54:07;100244.75;;;12.05;100.00
22550;BME280;11441;57.164;-2.120;2022-08-21T05:56:34;100247.03;;;12.30;100.00
22550;BME280;11441;57.164;-2.120;2022-08-21T05:59:01;100241.00;;;12.20;100.00
22550;BME280;11441;57.164;-2.120;2022-08-21T06:01:34;100246.50;;;12.20;100.00
22550;BME280;11441;57.164;-2.120;2022-08-21T06:04:01;100246.63;;;12.31;100.00
22550;BME280;11441;57.164;-2.120;2022-08-21T06:06:30;100237.00;;;12.14;100.00
22550;BME280;11441;57.164;-2.120;2022-08-21T06:08:57;100245.41;;;12.25;100.00
22550;BME280;11441;57.164;-2.120;2022-08-21T06:11:24;100240.13;;;12.13;100.00
22550;BME280;11441;57.164;-2.120;2022-08-21T06:14:10;100258.50;;;12.32;100.00
22550;BME280;11441;57.164;-2.120;2022-08-21T06:17:02;100263.38;;;12.45;100.00
22550;BME280;11441;57.164;-2.120;2022-08-21T06:19:29;100257.81;;;12.42;100.00
22550;BME280;11441;57.164;-2.120;2022-08-21T06:21:57;100273.66;;;12.49;100.00
22550;BME280;11441;57.164;-2.120;2022-08-21T06:24:23;100262.59;;;12.49;100.00
22550;BME280;11441;57.164;-2.120;2022-08-21T06:26:51;100268.63;;;12.58;100.00
22550;BME280;11441;57.164;-2.120;2022-08-21T06:29:18;100268.69;;;12.65;100.00
22550;BME280;11441;57.164;-2.120;2022-08-21T06:31:47;100268.31;;;12.67;100.00
22550;BME280;11441;57.164;-2.120;2022-08-21T06:34:15;100258.09;;;12.71;100.00
22550;BME280;11441;57.164;-2.120;2022-08-21T06:36:42;100261.13;;;12.58;100.00
22550;BME280;11441;57.164;-2.120;2022-08-21T06:39:10;100269.06;;;12.63;100.00
22550;BME280;11441;57.164;-2.120;2022-08-21T06:41:51;100280.75;;;12.87;100.00
22550;BME280;11441;57.164;-2.120;2022-08-21T06:44:22;100282.00;;;12.97;100.00
22550;BME280;11441;57.164;-2.120;2022-08-21T06:46:49;100276.84;;;12.92;100.00
22550;BME280;11441;57.164;-2.120;2022-08-21T06:49:35;100276.34;;;12.79;100.00
22550;BME280;11441;57.164;-2.120;2022-08-21T06:52:21;100257.13;;;12.97;100.00
22550;BME280;11441;57.164;-2.120;2022-08-21T06:54:48;100271.28;;;12.88;100.00
22550;BME280;11441;57.164;-2.120;2022-08-21T06:57:15;100276.47;;;12.93;100.00
22550;BME280;11441;57.164;-2.120;2022-08-21T06:59:42;100265.38;;;12.90;100.00
22550;BME280;11441;57.164;-2.120;2022-08-21T07:02:28;100275.91;;;13.25;100.00
22550;BME280;11441;57.164;-2.120;2022-08-21T07:04:55;100277.59;;;13.33;100.00
22550;BME280;11441;57.164;-2.120;2022-08-21T07:07:21;100277.94;;;13.28;100.00
22550;BME280;11441;57.164;-2.120;2022-08-21T07:09:48;100275.25;;;13.35;100.00
22550;BME280;11441;57.164;-2.120;2022-08-21T07:12:15;100288.78;;;13.51;100.00
22550;BME280;11441;57.164;-2.120;2022-08-21T07:14:42;100283.19;;;13.44;100.00
22550;BME280;11441;57.164;-2.120;2022-08-21T07:17:09;100283.56;;;13.39;100.00
22550;BME280;11441;57.164;-2.120;2022-08-21T07:19:36;100283.25;;;13.51;100.00
22550;BME280;11441;57.164;-2.120;2022-08-21T07:22:03;100284.91;;;13.63;100.00
22550;BME280;11441;57.164;-2.120;2022-08-21T07:24:30;100292.81;;;13.61;100.00
22550;BME280;11441;57.164;-2.120;2022-08-21T07:27:16;100296.50;;;13.80;100.00
22550;BME280;11441;57.164;-2.120;2022-08-21T07:29:43;100302.03;;;13.80;100.00
22550;BME280;11441;57.164;-2.120;2022-08-21T07:32:10;100293.75;;;13.87;100.00
22550;BME280;11441;57.164;-2.120;2022-08-21T07:34:38;100288.59;;;13.82;100.00
22550;BME280;11441;57.164;-2.120;2022-08-21T07:37:07;100290.19;;;13.86;100.00
22550;BME280;11441;57.164;-2.120;2022-08-21T07:39:36;100300.47;;;13.89;100.00
22550;BME280;11441;57.164;-2.120;2022-08-21T07:42:04;100286.28;;;13.98;100.00
22550;BME280;11441;57.164;-2.120;2022-08-21T07:44:34;100303.75;;;14.06;100.00
22550;BME280;11441;57.164;-2.120;2022-08-21T07:47:01;100297.91;;;14.36;100.00
22550;BME280;11441;57.164;-2.120;2022-08-21T07:49:28;100310.97;;;14.32;100.00
22550;BME280;11441;57.164;-2.120;2022-08-21T07:51:56;100310.97;;;14.28;100.00
22550;BME280;11441;57.164;-2.120;2022-08-21T07:54:23;100309.75;;;14.22;100.00
22550;BME280;11441;57.164;-2.120;2022-08-21T07:57:00;100315.31;;;14.33;100.00
22550;BME280;11441;57.164;-2.120;2022-08-21T07:59:27;100320.50;;;14.45;100.00
22550;BME280;11441;57.164;-2.120;2022-08-21T08:01:54;100326.03;;;14.45;100.00
22550;BME280;11441;57.164;-2.120;2022-08-21T08:04:40;100311.34;;;14.27;100.00
22550;BME280;11441;57.164;-2.120;2022-08-21T08:07:16;100329.19;;;14.40;100.00
22550;BME280;11441;57.164;-2.120;2022-08-21T08:09:44;100335.56;;;14.44;100.00
22550;BME280;11441;57.164;-2.120;2022-08-21T08:12:12;100335.19;;;14.57;100.00
22550;BME280;11441;57.164;-2.120;2022-08-21T08:14:39;100335.66;;;14.77;100.00
22550;BME280;11441;57.164;-2.120;2022-08-21T08:17:06;100324.56;;;14.73;100.00
22550;BME280;11441;57.164;-2.120;2022-08-21T08:19:53;100342.00;;;14.74;100.00
22550;BME280;11441;57.164;-2.120;2022-08-21T08:22:22;100339.28;;;14.99;100.00
22550;BME280;11441;57.164;-2.120;2022-08-21T08:24:53;100339.28;;;14.92;100.00
22550;BME280;11441;57.164;-2.120;2022-08-21T08:27:21;100342.88;;;15.06;100.00
22550;BME280;11441;57.164;-2.120;2022-08-21T08:30:07;100349.59;;;15.16;100.00
22550;BME280;11441;57.164;-2.120;2022-08-21T08:32:35;100346.03;;;15.23;100.00
22550;BME280;11441;57.164;-2.120;2022-08-21T08:35:21;100351.97;;;15.14;100.00
22550;BME280;11441;57.164;-2.120;2022-08-21T08:38:08;100353.19;;;15.31;100.00
22550;BME280;11441;57.164;-2.120;2022-08-21T08:43:42;100326.22;;;15.35;100.00
22550;BME280;11441;57.164;-2.120;2022-08-21T08:46:14;100349.59;;;15.63;100.00
22550;BME280;11441;57.164;-2.120;2022-08-21T08:48:55;100346.06;;;15.55;100.00
22550;BME280;11441;57.164;-2.120;2022-08-21T08:51:44;100347.22;;;15.79;100.00
22550;BME280;11441;57.164;-2.120;2022-08-21T08:54:29;100349.56;;;16.10;100.00
22550;BME280;11441;57.164;-2.120;2022-08-21T08:57:00;100344.38;;;16.12;100.00
22550;BME280;11441;57.164;-2.120;2022-08-21T08:59:51;100346.03;;;15.88;100.00
22550;BME280;11441;57.164;-2.120;2022-08-21T09:02:19;100347.19;;;16.01;100.00
22550;BME280;11441;57.164;-2.120;2022-08-21T09:04:49;100356.31;;;16.05;100.00
22550;BME280;11441;57.164;-2.120;2022-08-21T09:12:49;100345.19;;;16.01;100.00
22550;BME280;11441;57.164;-2.120;2022-08-21T09:16:00;100348.72;;;16.24;100.00
22550;BME280;11441;57.164;-2.120;2022-08-21T09:18:39;100358.63;;;16.25;100.00
22550;BME280;11441;57.164;-2.120;2022-08-21T09:21:43;100373.25;;;16.47;100.00
22550;BME280;11441;57.164;-2.120;2022-08-21T09:27:13;100359.66;;;16.63;100.00
22550;BME280;11441;57.164;-2.120;2022-08-21T09:29:44;100366.78;;;16.68;100.00
22550;BME280;11441;57.164;-2.120;2022-08-21T09:32:30;100375.63;;;16.45;100.00
22550;BME280;11441;57.164;-2.120;2022-08-21T09:43:06;100381.50;;;16.61;96.44
22550;BME280;11441;57.164;-2.120;2022-08-21T09:45:35;100390.19;;;16.77;95.71
22550;BME280;11441;57.164;-2.120;2022-08-21T09:51:12;100395.31;;;16.83;95.98
22550;BME280;11441;57.164;-2.120;2022-08-21T09:53:52;100396.09;;;16.83;95.17
22550;BME280;11441;57.164;-2.120;2022-08-21T09:56:36;100387.03;;;16.75;97.10
22550;BME280;11441;57.164;-2.120;2022-08-21T09:59:31;100389.38;;;16.73;97.36
22550;BME280;11441;57.164;-2.120;2022-08-21T10:02:25;100392.66;;;16.54;100.00
22550;BME280;11441;57.164;-2.120;2022-08-21T10:05:07;100394.28;;;16.48;100.00
22550;BME280;11441;57.164;-2.120;2022-08-21T10:07:37;100401.81;;;16.44;100.00
22550;BME280;11441;57.164;-2.120;2022-08-21T10:21:07;100411.19;;;16.93;91.81
22550;BME280;11441;57.164;-2.120;2022-08-21T10:27:27;100417.53;;;16.97;88.81
22550;BME280;11441;57.164;-2.120;2022-08-21T10:29:58;100418.69;;;17.00;88.50
22550;BME280;11441;57.164;-2.120;2022-08-21T10:35:30;100427.47;;;16.98;88.66
22550;BME280;11441;57.164;-2.120;2022-08-21T10:41:43;100441.38;;;16.91;91.64
22550;BME280;11441;57.164;-2.120;2022-08-21T10:47:04;100444.19;;;16.80;93.21
22550;BME280;11441;57.164;-2.120;2022-08-21T10:52:31;100435.84;;;16.80;92.76
22550;BME280;11441;57.164;-2.120;2022-08-21T10:55:16;100438.16;;;17.00;92.23
22550;BME280;11441;57.164;-2.120;2022-08-21T10:58:08;100453.91;;;17.28;89.03
22550;BME280;11441;57.164;-2.120;2022-08-21T11:00:43;100453.09;;;17.31;89.19
22550;BME280;11441;57.164;-2.120;2022-08-21T11:06:24;100455.22;;;17.09;85.53
22550;BME280;11441;57.164;-2.120;2022-08-21T11:08:55;100442.22;;;16.84;84.67
22550;BME280;11441;57.164;-2.120;2022-08-21T11:11:30;100454.84;;;17.07;84.64
22550;BME280;11441;57.164;-2.120;2022-08-21T11:14:55;100468.75;;;17.07;86.40
22550;BME280;11441;57.164;-2.120;2022-08-21T11:17:19;100477.97;;;16.86;87.78
22550;BME280;11441;57.164;-2.120;2022-08-21T11:22:45;100482.59;;;17.18;87.74
22550;BME280;11441;57.164;-2.120;2022-08-21T11:28:06;100491.56;;;17.50;86.16
22550;BME280;11441;57.164;-2.120;2022-08-21T11:31:22;100498.84;;;17.30;84.88
22550;BME280;11441;57.164;-2.120;2022-08-21T11:37:23;100499.34;;;17.00;85.38
22550;BME280;11441;57.164;-2.120;2022-08-21T11:39:30;100504.91;;;17.00;85.23
22550;BME280;11441;57.164;-2.120;2022-08-21T11:50:28;100520.38;;;17.11;83.90
22550;BME280;11441;57.164;-2.120;2022-08-21T11:53:10;100520.63;;;17.42;80.70
22550;BME280;11441;57.164;-2.120;2022-08-21T11:58:39;100510.19;;;17.57;75.33
22550;BME280;11441;57.164;-2.120;2022-08-21T12:01:10;100504.31;;;17.44;74.33
22550;BME280;11441;57.164;-2.120;2022-08-21T12:04:34;100493.28;;;17.89;72.95
22550;BME280;11441;57.164;-2.120;2022-08-21T12:07:28;100493.44;;;17.68;73.07
22550;BME280;11441;57.164;-2.120;2022-08-21T12:09:57;100512.28;;;18.02;72.66
22550;BME280;11441;57.164;-2.120;2022-08-21T12:12:37;100513.31;;;18.22;75.68
22550;BME280;11441;57.164;-2.120;2022-08-21T12:18:02;100507.28;;;17.75;65.85
22550;BME280;11441;57.164;-2.120;2022-08-21T12:23:16;100528.09;;;17.60;63.80
22550;BME280;11441;57.164;-2.120;2022-08-21T12:26:00;100519.28;;;17.65;60.92
22550;BME280;11441;57.164;-2.120;2022-08-21T12:28:28;100519.78;;;17.52;63.14
22550;BME280;11441;57.164;-2.120;2022-08-21T12:30:57;100529.94;;;17.77;64.89
22550;BME280;11441;57.164;-2.120;2022-08-21T12:33:35;100518.22;;;18.04;63.97
22550;BME280;11441;57.164;-2.120;2022-08-21T12:38:44;100525.66;;;18.21;61.61
22550;BME280;11441;57.164;-2.120;2022-08-21T12:41:21;100529.19;;;18.29;62.17
22550;BME280;11441;57.164;-2.120;2022-08-21T12:43:56;100516.22;;;18.08;63.03
22550;BME280;11441;57.164;-2.120;2022-08-21T12:46:42;100506.47;;;18.31;61.47
22550;BME280;11441;57.164;-2.120;2022-08-21T12:49:36;100517.97;;;18.36;60.71
22550;BME280;11441;57.164;-2.120;2022-08-21T12:52:28;100529.38;;;18.49;58.80
22550;BME280;11441;57.164;-2.120;2022-08-21T12:54:59;100527.22;;;18.26;57.49
22550;BME280;11441;57.164;-2.120;2022-08-21T12:57:29;100534.31;;;18.34;58.17
22550;BME280;11441;57.164;-2.120;2022-08-21T13:00:06;100527.91;;;18.34;58.80
22550;BME280;11441;57.164;-2.120;2022-08-21T13:02:38;100528.06;;;18.19;58.89
22550;BME280;11441;57.164;-2.120;2022-08-21T13:05:15;100530.03;;;18.64;58.51
22550;BME280;11441;57.164;-2.120;2022-08-21T13:07:46;100522.59;;;18.92;59.25
22550;BME280;11441;57.164;-2.120;2022-08-21T13:10:19;100536.34;;;19.06;60.17
22550;BME280;11441;57.164;-2.120;2022-08-21T13:12:47;100517.59;;;19.37;59.55
22550;BME280;11441;57.164;-2.120;2022-08-21T13:15:23;100536.31;;;19.10;59.58
22550;BME280;11441;57.164;-2.120;2022-08-21T13:17:59;100520.88;;;19.32;60.49
22550;BME280;11441;57.164;-2.120;2022-08-21T13:21:12;100531.41;;;19.48;59.53
22550;BME280;11441;57.164;-2.120;2022-08-21T13:23:41;100535.63;;;19.02;59.30
22550;BME280;11441;57.164;-2.120;2022-08-21T13:26:16;100547.34;;;19.20;59.28
22550;BME280;11441;57.164;-2.120;2022-08-21T13:28:44;100525.97;;;19.37;57.89
22550;BME280;11441;57.164;-2.120;2022-08-21T13:31:20;100542.28;;;19.43;57.58
22550;BME280;11441;57.164;-2.120;2022-08-21T13:33:48;100542.00;;;19.33;58.33
22550;BME280;11441;57.164;-2.120;2022-08-21T13:36:20;100552.03;;;19.58;58.31
22550;BME280;11441;57.164;-2.120;2022-08-21T13:38:53;100545.84;;;19.43;58.89
22550;BME280;11441;57.164;-2.120;2022-08-21T13:41:41;100557.53;;;19.34;59.67
22550;BME280;11441;57.164;-2.120;2022-08-21T13:44:35;100561.28;;;19.20;60.94
22550;BME280;11441;57.164;-2.120;2022-08-21T13:47:05;100555.09;;;19.06;60.15
22550;BME280;11441;57.164;-2.120;2022-08-21T13:49:36;100567.50;;;19.35;59.47
22550;BME280;11441;57.164;-2.120;2022-08-21T13:52:04;100564.41;;;19.26;58.53
22550;BME280;11441;57.164;-2.120;2022-08-21T13:54:42;100555.75;;;19.17;59.63
22550;BME280;11441;57.164;-2.120;2022-08-21T13:57:19;100562.31;;;19.65;60.47
22550;BME280;11441;57.164;-2.120;2022-08-21T13:59:50;100547.91;;;19.66;59.26
22550;BME280;11441;57.164;-2.120;2022-08-21T14:02:20;100551.09;;;19.68;59.87
22550;BME280;11441;57.164;-2.120;2022-08-21T14:04:56;100551.31;;;19.50;60.04
22550;BME280;11441;57.164;-2.120;2022-08-21T14:07:42;100561.97;;;19.32;59.70
22550;BME280;11441;57.164;-2.120;2022-08-21T14:10:17;100565.81;;;19.41;59.70
22550;BME280;11441;57.164;-2.120;2022-08-21T14:13:03;100558.41;;;18.97;59.74
22550;BME280;11441;57.164;-2.120;2022-08-21T14:15:33;100559.31;;;19.21;59.73
22550;BME280;11441;57.164;-2.120;2022-08-21T14:18:09;100562.31;;;19.03;59.60
22550;BME280;11441;57.164;-2.120;2022-08-21T14:20:40;100564.53;;;19.15;59.81
22550;BME280;11441;57.164;-2.120;2022-08-21T14:23:07;100568.47;;;19.21;60.10
22550;BME280;11441;57.164;-2.120;2022-08-21T14:25:39;100569.56;;;19.28;60.20
22550;BME280;11441;57.164;-2.120;2022-08-21T14:28:32;100573.78;;;19.43;59.63
22550;BME280;11441;57.164;-2.120;2022-08-21T14:31:21;100582.38;;;19.25;59.59